Time;durP1;ratioP1;P1;durP2;ratioP2;P2;SDS_P1;SDS_P2;PMS_P1;PMS_P2;Temp;Humidity;BMP_temperature;BMP_pressure;BME280_temperature;BME280_humidity;BME280_pressure;Samples;Min_cycle;Max_cycle;Signal;HPM_P1;HPM_P2
2022/07/28 00:01:30;;;;;;;2.67;0.95;;;14.00;99.90;;;;;;5012398;28;20107;-57
2022/07/28 00:03:55;;;;;;;1.92;0.85;;;14.00;99.90;;;;;;5013408;28;20079;-58
2022/07/28 00:06:21;;;;;;;4.30;1.15;;;14.00;99.90;;;;;;5011686;28;20061;-57
2022/07/28 00:08:47;;;;;;;1.98;0.80;;;14.00;99.90;;;;;;5023699;28;20060;-56
2022/07/28 00:11:13;;;;;;;2.05;1.08;;;13.90;99.90;;;;;;5015948;28;20040;-56
2022/07/28 00:13:38;;;;;;;1.80;0.90;;;13.90;99.90;;;;;;5013142;28;20022;-57
2022/07/28 00:16:05;;;;;;;2.50;1.00;;;13.90;99.90;;;;;;5012560;28;20041;-57
2022/07/28 00:18:31;;;;;;;3.28;0.88;;;13.90;99.90;;;;;;5010731;28;20069;-57
2022/07/28 00:20:57;;;;;;;4.63;1.00;;;14.00;99.90;;;;;;5013845;28;20045;-58
2022/07/28 00:23:23;;;;;;;2.10;0.80;;;14.00;99.90;;;;;;5010597;28;20517;-58
2022/07/28 00:25:49;;;;;;;1.88;0.90;;;14.10;99.90;;;;;;5016857;28;20029;-58
2022/07/28 00:28:15;;;;;;;5.25;1.00;;;14.00;99.90;;;;;;5013133;28;20037;-57
2022/07/28 00:30:40;;;;;;;2.92;1.00;;;14.00;99.90;;;;;;5010450;28;20033;-58
2022/07/28 00:33:06;;;;;;;1.90;0.82;;;14.00;99.90;;;;;;5015566;28;20072;-58
2022/07/28 00:35:32;;;;;;;1.55;1.00;;;13.90;99.90;;;;;;5011346;28;20034;-57
2022/07/28 00:37:58;;;;;;;5.20;1.73;;;13.90;99.90;;;;;;5012518;28;20121;-58
2022/07/28 00:41:09;;;;;;;3.72;0.98;;;14.00;99.90;;;;;;5012216;28;20058;-58
2022/07/28 00:43:10;;;;;;;5.05;1.13;;;14.10;99.90;;;;;;5009345;28;20042;-57
2022/07/28 00:45:36;;;;;;;4.90;1.20;;;14.10;99.90;;;;;;5018306;28;20029;-58
2022/07/28 00:48:01;;;;;;;4.43;1.15;;;14.10;99.90;;;;;;5016112;28;20036;-57
2022/07/28 00:50:27;;;;;;;7.97;1.50;;;14.00;99.90;;;;;;5008447;28;20037;-57
2022/07/28 00:52:53;;;;;;;1.90;0.77;;;14.00;99.90;;;;;;5018575;28;20500;-58
2022/07/28 00:55:21;;;;;;;2.35;0.90;;;13.90;99.90;;;;;;5017374;28;20052;-57
2022/07/28 00:57:47;;;;;;;2.15;1.27;;;13.80;99.90;;;;;;5023847;28;20366;-57
2022/07/28 01:00:12;;;;;;;4.53;1.02;;;13.70;99.90;;;;;;5021556;28;20030;-58
2022/07/28 01:02:38;;;;;;;2.42;1.10;;;13.70;99.90;;;;;;5015810;28;20030;-57
2022/07/28 01:05:04;;;;;;;4.00;1.10;;;13.70;99.90;;;;;;5007698;28;20156;-57
2022/07/28 01:07:42;;;;;;;3.63;1.80;;;13.60;99.90;;;;;;5008799;28;20034;-57
2022/07/28 01:10:15;;;;;;;4.25;1.05;;;13.60;99.90;;;;;;5016329;28;20108;-57
2022/07/28 01:12:54;;;;;;;4.20;1.10;;;13.60;99.90;;;;;;5013862;28;20048;-57
2022/07/28 01:15:34;;;;;;;3.53;1.20;;;13.60;99.90;;;;;;5005549;28;20030;-57
2022/07/28 01:18:19;;;;;;;2.05;1.02;;;13.60;99.90;;;;;;5026979;28;20053;-57
2022/07/28 01:20:48;;;;;;;2.88;1.17;;;13.60;99.90;;;;;;5022402;28;20156;-57
2022/07/28 01:23:32;;;;;;;2.15;0.90;;;13.60;99.90;;;;;;5018524;28;20065;-58
2022/07/28 01:26:10;;;;;;;2.38;0.95;;;13.70;99.90;;;;;;5005908;28;20029;-56
2022/07/28 01:28:54;;;;;;;4.82;1.10;;;13.70;99.90;;;;;;5010317;28;20084;-56
2022/07/28 01:31:24;;;;;;;2.55;1.10;;;13.70;99.90;;;;;;5000816;28;20026;-60
2022/07/28 01:34:00;;;;;;;3.65;1.40;;;13.70;99.90;;;;;;5022246;28;20056;-58
2022/07/28 01:36:30;;;;;;;3.80;1.00;;;13.80;99.90;;;;;;5002310;28;20080;-57
2022/07/28 01:38:57;;;;;;;2.20;1.10;;;13.80;99.90;;;;;;5004444;28;20030;-57
2022/07/28 01:41:28;;;;;;;5.18;1.20;;;13.70;99.90;;;;;;5015417;28;20583;-57
2022/07/28 01:44:01;;;;;;;4.50;1.00;;;13.80;99.90;;;;;;5005331;28;20494;-57
2022/07/28 01:46:28;;;;;;;5.03;1.85;;;13.80;99.90;;;;;;5012485;28;20057;-57
2022/07/28 01:48:56;;;;;;;2.88;1.10;;;13.80;99.90;;;;;;5004391;28;20037;-57
2022/07/28 01:51:24;;;;;;;3.70;1.35;;;13.80;99.90;;;;;;5018184;28;20033;-57
2022/07/28 01:53:53;;;;;;;5.65;1.42;;;13.80;99.90;;;;;;5020825;28;20041;-58
2022/07/28 01:56:21;;;;;;;6.30;1.70;;;13.80;99.90;;;;;;5007687;28;20041;-58
2022/07/28 01:58:50;;;;;;;2.05;1.40;;;13.80;99.90;;;;;;5018704;28;20026;-57
2022/07/28 02:01:18;;;;;;;5.68;1.42;;;13.80;99.90;;;;;;5017834;28;20046;-58
2022/07/28 02:03:45;;;;;;;2.90;1.20;;;13.80;99.90;;;;;;5013242;28;20060;-58
2022/07/28 02:06:12;;;;;;;2.47;1.30;;;13.80;99.90;;;;;;5022281;28;20037;-58
2022/07/28 02:08:39;;;;;;;4.82;1.40;;;13.80;99.90;;;;;;5016666;28;20131;-57
2022/07/28 02:13:50;;;;;;;3.63;1.48;;;13.70;99.90;;;;;;5002833;28;20489;-57
2022/07/28 02:16:21;;;;;;;3.40;1.25;;;13.70;99.90;;;;;;5010757;28;20426;-57
2022/07/28 02:18:48;;;;;;;4.70;1.23;;;13.70;99.90;;;;;;5012841;28;20028;-57
2022/07/28 02:21:15;;;;;;;3.20;1.30;;;13.70;99.90;;;;;;5008496;28;20037;-57
2022/07/28 02:23:44;;;;;;;6.65;1.33;;;13.60;99.90;;;;;;5018749;28;20029;-57
2022/07/28 02:26:12;;;;;;;5.72;1.25;;;13.60;99.90;;;;;;5012188;28;20037;-57
2022/07/28 02:28:42;;;;;;;2.92;1.30;;;13.60;99.90;;;;;;5013852;28;20018;-57
2022/07/28 02:31:30;;;;;;;1.60;1.10;;;13.60;99.90;;;;;;5010434;28;20044;-57
2022/07/28 02:33:59;;;;;;;7.90;1.55;;;13.60;99.90;;;;;;5018343;28;20022;-57
2022/07/28 02:36:30;;;;;;;6.13;1.30;;;13.70;99.90;;;;;;5013048;28;20033;-58
2022/07/28 02:39:04;;;;;;;4.55;1.20;;;13.70;99.90;;;;;;5010205;28;20030;-56
2022/07/28 02:41:33;;;;;;;3.53;1.45;;;13.70;99.90;;;;;;5009105;28;20146;-57
2022/07/28 02:44:03;;;;;;;2.67;1.30;;;13.70;99.90;;;;;;5023002;28;20047;-58
2022/07/28 02:46:39;;;;;;;4.40;2.05;;;13.70;99.90;;;;;;5018191;28;20125;-58
2022/07/28 02:49:12;;;;;;;3.17;1.23;;;13.70;99.90;;;;;;5013237;28;20040;-58
2022/07/28 02:51:40;;;;;;;3.53;1.20;;;13.70;99.90;;;;;;5017889;28;20026;-57
2022/07/28 02:54:07;;;;;;;4.97;1.38;;;13.70;99.90;;;;;;5018979;28;20026;-58
2022/07/28 02:56:33;;;;;;;5.30;1.30;;;13.70;99.90;;;;;;5018164;28;20084;-58
2022/07/28 02:58:59;;;;;;;3.65;1.27;;;13.80;99.90;;;;;;5009636;28;20022;-57
2022/07/28 03:01:25;;;;;;;3.47;1.58;;;13.70;99.90;;;;;;5018037;28;20482;-58
2022/07/28 03:03:52;;;;;;;4.25;1.50;;;13.70;99.90;;;;;;5011362;28;20025;-58
2022/07/28 03:06:21;;;;;;;5.88;1.45;;;13.60;99.90;;;;;;5009151;28;20033;-58
2022/07/28 03:08:49;;;;;;;4.10;1.48;;;13.60;99.90;;;;;;5010569;28;20022;-57
2022/07/28 03:11:14;;;;;;;3.95;1.40;;;13.50;99.90;;;;;;5011695;28;20033;-57
2022/07/28 03:13:40;;;;;;;7.20;1.48;;;13.40;99.90;;;;;;5011117;28;20386;-57
2022/07/28 03:16:07;;;;;;;3.38;1.50;;;13.40;99.90;;;;;;5014631;28;20046;-57
2022/07/28 03:18:33;;;;;;;4.80;1.40;;;13.50;99.90;;;;;;5010113;28;20026;-57
2022/07/28 03:20:59;;;;;;;6.20;1.40;;;13.50;99.90;;;;;;5012287;28;20375;-57
2022/07/28 03:23:33;;;;;;;3.15;1.42;;;13.50;99.90;;;;;;5019110;28;20152;-57
2022/07/28 03:26:33;;;;;;;7.57;1.77;;;13.50;99.90;;;;;;5001910;28;20046;-57
2022/07/28 03:29:00;;;;;;;3.38;1.25;;;13.60;99.90;;;;;;5003507;28;20034;-57
2022/07/28 03:31:27;;;;;;;5.03;1.42;;;13.60;99.90;;;;;;5013808;28;20036;-57
2022/07/28 03:33:53;;;;;;;5.18;1.27;;;13.70;99.90;;;;;;5011860;28;20025;-57
2022/07/28 03:36:28;;;;;;;4.65;1.90;;;13.80;99.90;;;;;;5010296;28;20115;-56
2022/07/28 03:39:01;;;;;;;8.40;1.38;;;13.80;99.90;;;;;;5008686;28;20033;-58
2022/07/28 03:41:33;;;;;;;6.03;1.38;;;13.80;99.90;;;;;;5014633;28;20097;-61
2022/07/28 03:43:59;;;;;;;2.20;1.10;;;13.90;99.90;;;;;;4994608;28;20050;-57
2022/07/28 03:46:26;;;;;;;5.07;1.25;;;14.00;99.90;;;;;;4996287;28;20493;-58
2022/07/28 03:48:52;;;;;;;4.78;1.33;;;14.00;99.90;;;;;;4997070;28;20382;-58
2022/07/28 03:51:18;;;;;;;4.43;1.67;;;14.00;99.90;;;;;;4991651;28;20525;-58
2022/07/28 03:53:44;;;;;;;5.68;1.60;;;14.00;99.90;;;;;;4990837;28;20065;-58
2022/07/28 03:56:09;;;;;;;3.20;1.30;;;14.00;99.90;;;;;;4995859;28;20034;-57
2022/07/28 03:58:35;;;;;;;7.03;1.63;;;14.00;99.90;;;;;;4999583;28;20550;-57
2022/07/28 04:01:01;;;;;;;4.50;1.30;;;14.10;99.90;;;;;;4995937;28;20033;-58
2022/07/28 04:03:26;;;;;;;4.40;1.35;;;14.10;99.90;;;;;;4991521;28;20039;-58
2022/07/28 04:05:56;;;;;;;7.93;1.55;;;14.10;99.90;;;;;;4991893;28;20041;-57
2022/07/28 04:08:22;;;;;;;4.22;1.55;;;14.10;99.90;;;;;;4981700;28;20064;-57
2022/07/28 04:10:48;;;;;;;5.03;1.52;;;14.10;99.90;;;;;;4998702;28;20022;-57
2022/07/28 04:13:14;;;;;;;2.67;1.30;;;14.10;99.90;;;;;;4991016;28;20454;-58
2022/07/28 04:15:39;;;;;;;5.00;1.35;;;14.10;99.90;;;;;;4994990;28;20096;-58
2022/07/28 04:18:06;;;;;;;3.15;1.55;;;14.10;99.90;;;;;;4993063;28;20479;-58
2022/07/28 04:20:32;;;;;;;2.75;1.33;;;14.10;99.90;;;;;;4993727;28;20022;-58
2022/07/28 04:22:57;;;;;;;10.93;1.38;;;14.10;99.90;;;;;;4997571;28;20128;-57
2022/07/28 04:25:25;;;;;;;6.97;1.63;;;14.10;99.90;;;;;;4998297;28;20483;-58
2022/07/28 04:27:52;;;;;;;4.70;1.77;;;14.10;99.90;;;;;;4996552;28;20057;-59
2022/07/28 04:30:20;;;;;;;6.65;1.42;;;14.10;99.90;;;;;;4995319;28;20030;-58
2022/07/28 04:32:47;;;;;;;4.43;1.33;;;14.10;99.90;;;;;;4989767;28;20022;-58
2022/07/28 04:35:14;;;;;;;3.05;1.23;;;14.10;99.90;;;;;;4999773;28;20030;-59
2022/07/28 04:37:40;;;;;;;6.22;1.55;;;14.10;99.90;;;;;;4990166;28;20042;-58
2022/07/28 04:40:08;;;;;;;7.80;1.80;;;14.10;99.90;;;;;;5002701;28;20385;-58
2022/07/28 04:42:35;;;;;;;2.70;1.27;;;14.10;99.90;;;;;;4991062;28;20352;-59
2022/07/28 04:45:01;;;;;;;4.50;1.40;;;14.20;99.90;;;;;;4997486;28;20489;-58
2022/07/28 04:47:28;;;;;;;5.95;1.38;;;14.30;99.90;;;;;;4998796;28;20480;-58
2022/07/28 04:49:54;;;;;;;5.20;1.63;;;14.40;99.90;;;;;;4990899;28;20038;-58
2022/07/28 04:52:20;;;;;;;5.80;1.50;;;14.40;99.90;;;;;;4996583;28;20018;-59
2022/07/28 04:54:46;;;;;;;3.03;1.20;;;14.50;99.90;;;;;;4995351;28;20126;-59
2022/07/28 04:57:12;;;;;;;4.32;1.10;;;14.50;99.90;;;;;;4995416;28;20040;-59
2022/07/28 04:59:38;;;;;;;7.53;1.30;;;14.50;99.90;;;;;;4989284;28;20048;-58
2022/07/28 05:02:04;;;;;;;3.60;1.48;;;14.50;99.90;;;;;;4993623;28;20041;-58
2022/07/28 05:04:30;;;;;;;4.53;1.33;;;14.50;99.90;;;;;;5000289;28;20200;-57
2022/07/28 05:06:56;;;;;;;5.57;1.40;;;14.60;99.90;;;;;;4998313;28;20406;-58
2022/07/28 05:09:22;;;;;;;2.80;1.20;;;14.70;99.90;;;;;;4991567;28;20034;-58
2022/07/28 05:11:47;;;;;;;6.03;1.25;;;14.70;99.90;;;;;;4993240;28;20133;-58
2022/07/28 05:14:13;;;;;;;4.82;1.50;;;14.80;99.90;;;;;;4990503;28;20025;-58
2022/07/28 05:16:39;;;;;;;5.80;1.42;;;14.80;99.90;;;;;;4995519;28;20037;-58
2022/07/28 05:19:04;;;;;;;4.28;1.40;;;14.90;99.90;;;;;;4991485;28;20038;-58
2022/07/28 05:21:30;;;;;;;5.50;1.77;;;15.00;99.90;;;;;;4990674;28;20030;-57
2022/07/28 05:23:56;;;;;;;7.05;1.55;;;15.10;99.90;;;;;;4992120;28;20030;-58
2022/07/28 05:26:22;;;;;;;6.43;1.50;;;15.20;99.90;;;;;;4990132;28;20081;-58
2022/07/28 05:28:48;;;;;;;5.53;1.50;;;15.20;99.90;;;;;;4996102;28;20045;-58
2022/07/28 05:31:13;;;;;;;6.97;1.38;;;15.30;99.90;;;;;;4990945;28;20034;-58
2022/07/28 05:33:39;;;;;;;8.02;2.00;;;15.40;99.90;;;;;;4990772;28;20073;-58
2022/07/28 05:36:05;;;;;;;5.80;1.38;;;15.50;99.90;;;;;;4999552;28;20034;-58
2022/07/28 05:38:31;;;;;;;4.80;1.85;;;15.50;99.90;;;;;;4993525;28;20044;-57
2022/07/28 05:40:58;;;;;;;6.63;1.55;;;15.60;99.90;;;;;;4993005;28;20042;-58
2022/07/28 05:43:24;;;;;;;3.58;2.22;;;15.70;99.90;;;;;;4998166;28;20050;-58
2022/07/28 05:45:50;;;;;;;4.28;1.52;;;15.80;99.90;;;;;;5000270;28;20026;-58
2022/07/28 05:48:19;;;;;;;2.78;1.40;;;15.80;99.90;;;;;;4991165;28;20030;-59
2022/07/28 05:50:46;;;;;;;3.78;1.58;;;15.90;99.90;;;;;;4991726;28;20022;-57
2022/07/28 05:53:12;;;;;;;5.30;1.38;;;16.00;99.90;;;;;;4998254;28;20037;-58
2022/07/28 05:55:37;;;;;;;8.10;1.85;;;16.00;99.90;;;;;;4997966;28;20482;-58
2022/07/28 05:58:03;;;;;;;3.00;1.17;;;16.10;99.90;;;;;;4995675;28;20030;-59
2022/07/28 06:00:32;;;;;;;4.10;1.40;;;16.20;99.90;;;;;;4992072;28;20029;-58
2022/07/28 06:03:01;;;;;;;7.85;1.55;;;16.20;99.90;;;;;;4991560;28;20045;-58
2022/07/28 06:05:28;;;;;;;9.68;2.35;;;16.30;99.90;;;;;;4994356;28;20030;-58
2022/07/28 06:07:54;;;;;;;7.03;1.88;;;16.50;99.90;;;;;;4991159;28;20474;-59
2022/07/28 06:10:22;;;;;;;5.00;1.55;;;16.60;99.90;;;;;;4996913;28;20041;-58
2022/07/28 06:12:50;;;;;;;5.00;2.00;;;16.60;99.90;;;;;;4995933;28;20034;-58
2022/07/28 06:15:17;;;;;;;9.48;2.25;;;16.70;99.90;;;;;;4995476;28;20046;-58
2022/07/28 06:17:43;;;;;;;6.60;1.73;;;16.60;99.90;;;;;;5001755;28;20084;-58
2022/07/28 06:20:10;;;;;;;6.28;1.30;;;16.70;99.90;;;;;;4999074;28;20026;-58
2022/07/28 06:22:43;;;;;;;6.75;2.85;;;16.70;99.90;;;;;;4996926;28;20030;-58
2022/07/28 06:25:35;;;;;;;5.18;2.45;;;16.80;99.90;;;;;;4989751;28;20553;-58
2022/07/28 06:28:04;;;;;;;11.15;2.20;;;16.90;99.90;;;;;;4998748;28;20033;-58
2022/07/28 06:30:30;;;;;;;6.75;2.08;;;16.90;99.90;;;;;;4997528;28;20034;-59
2022/07/28 06:32:56;;;;;;;6.13;1.70;;;17.00;99.90;;;;;;4991254;28;20036;-58
2022/07/28 06:35:23;;;;;;;3.30;1.35;;;17.10;99.90;;;;;;4998957;28;20030;-58
2022/07/28 06:37:50;;;;;;;4.35;1.00;;;17.20;99.90;;;;;;4994136;28;20446;-58
2022/07/28 06:40:18;;;;;;;4.70;1.42;;;17.20;99.90;;;;;;5001379;28;20391;-58
2022/07/28 06:42:44;;;;;;;6.60;1.45;;;17.40;99.90;;;;;;5000191;28;20042;-59
2022/07/28 06:45:11;;;;;;;3.67;1.85;;;17.50;99.90;;;;;;4995506;28;20038;-59
2022/07/28 06:47:37;;;;;;;4.80;1.73;;;17.60;99.90;;;;;;4986640;28;20489;-59
2022/07/28 06:50:04;;;;;;;2.63;1.35;;;17.70;99.90;;;;;;4985171;28;20101;-57
2022/07/28 06:52:30;;;;;;;5.65;1.42;;;17.70;99.90;;;;;;4997263;28;20101;-59
2022/07/28 06:54:56;;;;;;;4.30;1.52;;;17.80;99.90;;;;;;4994499;28;20037;-59
2022/07/28 06:57:22;;;;;;;4.00;1.40;;;17.90;99.90;;;;;;4994171;28;20036;-59
2022/07/28 06:59:48;;;;;;;8.55;1.80;;;17.80;99.90;;;;;;4992945;28;20092;-60
2022/07/28 07:02:15;;;;;;;4.40;1.30;;;18.10;99.90;;;;;;4987348;28;20031;-59
2022/07/28 07:04:40;;;;;;;3.85;1.65;;;18.10;99.90;;;;;;4989148;28;20339;-59
2022/07/28 07:07:06;;;;;;;11.32;1.83;;;18.30;99.90;;;;;;4988378;28;20046;-59
2022/07/28 07:09:32;;;;;;;6.78;1.88;;;18.30;99.90;;;;;;4990951;28;20029;-58
2022/07/28 07:11:58;;;;;;;7.13;1.58;;;18.40;99.90;;;;;;4982403;28;20108;-58
2022/07/28 07:14:24;;;;;;;3.22;1.30;;;18.40;99.90;;;;;;4991429;28;20034;-59
2022/07/28 07:16:50;;;;;;;8.27;3.20;;;18.50;99.90;;;;;;4994004;28;20038;-58
2022/07/28 07:19:16;;;;;;;5.07;1.30;;;18.50;99.90;;;;;;4989413;28;20037;-58
2022/07/28 07:21:42;;;;;;;6.50;2.22;;;18.60;99.90;;;;;;4989649;28;20054;-60
2022/07/28 07:24:10;;;;;;;5.40;1.50;;;18.70;99.90;;;;;;4994938;28;20061;-58
2022/07/28 07:26:36;;;;;;;3.38;1.17;;;18.80;99.90;;;;;;4985679;28;20034;-59
2022/07/28 07:29:02;;;;;;;6.97;1.38;;;18.90;99.90;;;;;;4992918;28;20109;-60
2022/07/28 07:31:28;;;;;;;5.00;1.30;;;19.00;99.90;;;;;;4992303;28;20141;-58
2022/07/28 07:33:54;;;;;;;9.30;2.33;;;19.00;99.90;;;;;;4993213;28;20398;-58
2022/07/28 07:36:20;;;;;;;9.23;1.80;;;19.00;99.90;;;;;;4994406;28;20039;-58
2022/07/28 07:38:45;;;;;;;4.20;1.45;;;19.10;99.90;;;;;;4991622;28;20045;-59
2022/07/28 07:41:12;;;;;;;10.57;1.65;;;19.10;99.90;;;;;;4988173;28;20038;-59
2022/07/28 07:43:37;;;;;;;6.82;1.60;;;19.20;99.90;;;;;;4993392;28;20124;-59
2022/07/28 07:46:05;;;;;;;12.60;2.05;;;19.20;99.90;;;;;;4993946;28;20526;-59
2022/07/28 07:48:31;;;;;;;4.40;1.50;;;19.30;99.90;;;;;;4991696;28;20041;-59
2022/07/28 07:50:56;;;;;;;7.75;1.45;;;19.40;99.90;;;;;;4996586;28;20430;-59
2022/07/28 07:53:23;;;;;;;5.47;1.50;;;19.40;99.90;;;;;;4993834;28;20079;-59
2022/07/28 07:55:52;;;;;;;8.65;1.88;;;19.50;99.90;;;;;;4992121;28;21980;-59
2022/07/28 07:58:17;;;;;;;5.65;1.80;;;19.50;99.90;;;;;;4984523;28;20153;-59
2022/07/28 08:00:43;;;;;;;5.72;1.67;;;19.60;99.90;;;;;;4989726;28;20097;-58
2022/07/28 08:03:08;;;;;;;7.30;2.00;;;19.70;99.90;;;;;;4990980;28;20125;-58
2022/07/28 08:05:34;;;;;;;4.22;1.55;;;19.70;99.90;;;;;;4988106;28;20030;-58
2022/07/28 08:08:00;;;;;;;6.60;1.95;;;19.70;99.90;;;;;;4985401;28;20026;-58
2022/07/28 08:10:26;;;;;;;6.60;1.70;;;19.80;99.90;;;;;;4985386;28;20033;-58
2022/07/28 08:12:52;;;;;;;5.22;2.15;;;20.00;99.90;;;;;;4989078;28;20030;-59
2022/07/28 08:15:17;;;;;;;3.83;1.60;;;20.10;99.90;;;;;;4986527;28;20476;-58
2022/07/28 08:17:43;;;;;;;2.63;1.15;;;20.20;99.90;;;;;;4994370;28;20041;-58
2022/07/28 08:20:09;;;;;;;6.82;1.63;;;20.40;99.90;;;;;;4993206;28;20077;-59
2022/07/28 08:22:50;;;;;;;7.90;1.75;;;20.50;99.90;;;;;;4988112;28;20030;-58
2022/07/28 08:25:16;;;;;;;6.53;1.70;;;20.60;99.90;;;;;;4988423;28;20034;-59
2022/07/28 08:27:42;;;;;;;5.25;1.40;;;20.80;99.90;;;;;;5001409;28;20157;-57
2022/07/28 08:30:08;;;;;;;5.32;1.60;;;20.90;99.90;;;;;;4989619;28;20129;-58
2022/07/28 08:32:34;;;;;;;7.57;1.45;;;21.00;99.90;;;;;;4987957;28;20501;-59
2022/07/28 08:35:00;;;;;;;4.65;1.40;;;21.10;99.90;;;;;;4983692;28;20022;-59
2022/07/28 08:37:25;;;;;;;4.18;1.38;;;21.20;99.90;;;;;;4986633;28;20117;-58
2022/07/28 08:39:51;;;;;;;8.13;1.42;;;21.30;99.90;;;;;;5009946;28;20089;-59
2022/07/28 08:42:22;;;;;;;4.57;1.42;;;21.40;99.90;;;;;;4991548;28;20096;-58
2022/07/28 08:44:53;;;;;;;6.38;1.00;;;21.50;99.90;;;;;;4988938;28;20030;-60
2022/07/28 08:47:20;;;;;;;3.38;1.30;;;21.70;99.90;;;;;;4987670;28;20026;-60
2022/07/28 08:49:48;;;;;;;6.45;1.90;;;21.60;99.90;;;;;;4988666;28;20042;-59
2022/07/28 08:52:14;;;;;;;4.03;1.40;;;21.80;99.90;;;;;;4986001;28;20042;-59
2022/07/28 08:54:49;;;;;;;4.53;1.15;;;21.70;99.90;;;;;;4992102;28;20382;-59
2022/07/28 08:57:21;;;;;;;3.72;1.08;;;21.90;99.90;;;;;;4986985;28;20061;-58
2022/07/28 08:59:48;;;;;;;3.28;1.40;;;22.10;99.90;;;;;;4988966;28;20022;-59
2022/07/28 09:02:14;;;;;;;5.97;1.17;;;22.20;99.90;;;;;;4993212;28;20121;-59
2022/07/28 09:04:41;;;;;;;3.92;1.17;;;22.40;99.90;;;;;;4987876;28;20416;-61
2022/07/28 09:07:07;;;;;;;4.45;1.10;;;22.30;99.90;;;;;;4986321;28;20034;-60
2022/07/28 09:09:33;;;;;;;4.47;1.05;;;22.20;99.90;;;;;;4992960;28;20494;-58
2022/07/28 09:12:01;;;;;;;4.07;1.20;;;22.10;99.90;;;;;;4990615;28;20061;-60
2022/07/28 09:14:27;;;;;;;4.93;1.00;;;22.20;99.90;;;;;;4991032;28;20025;-60
2022/07/28 09:16:53;;;;;;;3.85;1.13;;;22.30;99.90;;;;;;4994470;28;20442;-60
2022/07/28 09:19:19;;;;;;;4.45;1.35;;;22.30;99.90;;;;;;4999782;28;20030;-60
2022/07/28 09:21:45;;;;;;;4.60;0.98;;;22.40;99.90;;;;;;4995259;28;20076;-60
2022/07/28 09:24:34;;;;;;;3.03;1.38;;;22.60;99.90;;;;;;4993070;28;20076;-59
2022/07/28 09:27:08;;;;;;;7.18;1.20;;;22.70;99.90;;;;;;5001183;28;20033;-58
2022/07/28 09:29:35;;;;;;;4.82;1.05;;;22.90;99.00;;;;;;4997839;28;20030;-58
2022/07/28 09:32:02;;;;;;;9.43;1.55;;;23.00;97.60;;;;;;4987638;28;20034;-59
2022/07/28 09:34:37;;;;;;;7.32;0.85;;;23.00;97.30;;;;;;4992083;28;20030;-59
2022/07/28 09:37:03;;;;;;;7.50;1.42;;;23.10;97.20;;;;;;4989456;28;20045;-62
2022/07/28 09:39:29;;;;;;;3.70;0.82;;;23.10;96.80;;;;;;4996682;28;20038;-59
2022/07/28 09:41:55;;;;;;;5.88;1.05;;;23.30;95.90;;;;;;4984158;28;20046;-60
2022/07/28 09:44:22;;;;;;;5.40;0.85;;;23.10;96.00;;;;;;4990932;28;20105;-60
2022/07/28 09:46:48;;;;;;;5.78;1.17;;;23.30;96.10;;;;;;4992198;28;20069;-60
2022/07/28 09:49:14;;;;;;;2.53;0.93;;;23.30;95.30;;;;;;4990865;28;20455;-59
2022/07/28 09:51:40;;;;;;;6.85;1.45;;;23.20;95.90;;;;;;4991135;28;20033;-59
2022/07/28 09:54:08;;;;;;;5.20;1.02;;;23.40;95.60;;;;;;4995128;28;20030;-59
2022/07/28 09:56:35;;;;;;;4.22;1.10;;;23.40;95.10;;;;;;4990560;28;20034;-60
2022/07/28 09:59:02;;;;;;;7.97;1.85;;;23.60;94.70;;;;;;4994683;28;20098;-60
2022/07/28 10:01:28;;;;;;;5.45;1.10;;;23.70;94.70;;;;;;4989812;28;20038;-60
2022/07/28 10:03:56;;;;;;;7.95;1.55;;;23.80;94.00;;;;;;4994976;28;20113;-58
2022/07/28 10:06:27;;;;;;;3.00;0.60;;;24.00;93.40;;;;;;4991970;28;20554;-60
2022/07/28 10:08:55;;;;;;;2.80;1.13;;;23.80;92.10;;;;;;4992819;28;20405;-60
2022/07/28 10:11:23;;;;;;;2.40;1.10;;;23.80;90.70;;;;;;4990372;28;20031;-60
2022/07/28 10:13:56;;;;;;;5.75;0.77;;;23.90;90.40;;;;;;4987319;28;20052;-60
2022/07/28 10:16:24;;;;;;;4.97;1.02;;;23.90;88.60;;;;;;4991868;28;20034;-59
2022/07/28 10:18:49;;;;;;;8.50;1.17;;;23.70;88.10;;;;;;4995326;28;20037;-59
2022/07/28 10:21:17;;;;;;;3.15;1.30;;;23.60;88.50;;;;;;4989111;28;20026;-60
2022/07/28 10:23:52;;;;;;;4.25;0.80;;;23.70;87.90;;;;;;4997657;28;20030;-60
2022/07/28 10:26:26;;;;;;;1.40;0.65;;;23.90;87.50;;;;;;5005366;28;20030;-60
2022/07/28 10:28:54;;;;;;;3.38;1.30;;;23.80;86.70;;;;;;4988104;28;20037;-60
2022/07/28 10:31:34;;;;;;;3.28;0.75;;;23.80;83.20;;;;;;4991255;28;20033;-60
2022/07/28 10:34:02;;;;;;;3.40;0.85;;;23.80;82.80;;;;;;4988364;28;20499;-59
2022/07/28 10:36:29;;;;;;;4.68;1.13;;;23.80;83.50;;;;;;4992768;28;20034;-60
2022/07/28 10:39:10;;;;;;;2.95;0.65;;;23.90;83.20;;;;;;4994510;28;20074;-59
2022/07/28 10:41:41;;;;;;;3.08;0.93;;;24.20;81.60;;;;;;4993587;28;20037;-59
2022/07/28 10:44:08;;;;;;;3.00;0.95;;;24.30;79.00;;;;;;4989472;28;20045;-60
2022/07/28 10:46:36;;;;;;;2.65;0.77;;;24.50;80.10;;;;;;4990224;28;20022;-60
2022/07/28 10:49:02;;;;;;;7.85;1.75;;;24.50;78.50;;;;;;4996609;28;20100;-59
2022/07/28 10:51:28;;;;;;;4.50;0.90;;;24.70;78.20;;;;;;4992572;28;20382;-60
2022/07/28 10:54:05;;;;;;;4.35;1.17;;;24.80;76.50;;;;;;4990839;28;20030;-61
2022/07/28 10:56:48;;;;;;;6.53;0.88;;;24.90;76.50;;;;;;4990076;28;20073;-60
2022/07/28 10:59:47;;;;;;;2.63;1.00;;;25.20;72.30;;;;;;4991429;28;20335;-60
2022/07/28 11:02:45;;;;;;;4.10;0.70;;;25.30;73.10;;;;;;4983718;28;20434;-59
2022/07/28 11:05:41;;;;;;;4.70;0.82;;;25.40;72.10;;;;;;4988614;28;20045;-59
2022/07/28 11:08:27;;;;;;;6.13;1.13;;;25.20;68.40;;;;;;4986569;28;20034;-59
2022/07/28 11:10:54;;;;;;;2.50;0.77;;;25.00;70.20;;;;;;4989057;28;20034;-59
2022/07/28 11:13:31;;;;;;;1.38;0.80;;;24.90;69.00;;;;;;4991814;28;20058;-59
2022/07/28 11:16:20;;;;;;;4.20;0.88;;;24.60;70.90;;;;;;4979868;28;20033;-59
2022/07/28 11:19:05;;;;;;;1.38;0.65;;;24.60;71.30;;;;;;4993831;28;20034;-59
2022/07/28 11:21:31;;;;;;;8.40;1.05;;;24.60;70.60;;;;;;4993411;28;20080;-60
2022/07/28 11:23:57;;;;;;;2.55;0.70;;;24.50;70.20;;;;;;4986554;28;20038;-61
2022/07/28 11:26:29;;;;;;;3.03;1.00;;;24.60;70.60;;;;;;4982619;28;20037;-58
2022/07/28 11:29:07;;;;;;;;;;;24.50;71.40;;;;;;4986309;28;20109;-60
2022/07/28 11:31:45;;;;;;;6.28;1.52;;;24.20;70.80;;;;;;4986959;28;20362;-59
2022/07/28 11:34:34;;;;;;;6.93;1.60;;;24.20;69.80;;;;;;4991895;28;20967;-58
2022/07/28 11:37:05;;;;;;;5.85;0.82;;;24.10;71.00;;;;;;4992454;28;20089;-59
2022/07/28 11:39:35;;;;;;;9.70;1.08;;;24.10;70.80;;;;;;4989365;28;20580;-59
2022/07/28 11:42:28;;;;;;;5.70;1.25;;;24.10;69.60;;;;;;4986490;28;20049;-59
2022/07/28 11:44:55;;;;;;;2.97;0.68;;;24.00;71.10;;;;;;4979427;28;20034;-58
2022/07/28 11:47:22;;;;;;;3.30;0.90;;;24.00;71.60;;;;;;4996446;28;20029;-60
2022/07/28 11:50:14;;;;;;;5.00;0.90;;;24.10;71.90;;;;;;4997435;28;20066;-59
2022/07/28 11:52:52;;;;;;;7.10;1.00;;;24.20;72.30;;;;;;4987236;28;20038;-59
2022/07/28 11:55:18;;;;;;;2.55;1.00;;;24.20;72.00;;;;;;4991236;28;20018;-58
2022/07/28 11:57:45;;;;;;;5.70;1.00;;;24.20;69.80;;;;;;4989581;28;20042;-59
2022/07/28 12:00:18;;;;;;;2.35;0.93;;;24.20;70.20;;;;;;4989321;28;20109;-60
2022/07/28 12:02:43;;;;;;;4.65;1.08;;;24.40;72.00;;;;;;4989442;28;20030;-59
2022/07/28 12:05:11;;;;;;;5.22;1.10;;;24.60;68.60;;;;;;4987974;28;20038;-59
2022/07/28 12:07:40;;;;;;;3.35;0.88;;;24.70;68.60;;;;;;4989076;28;20038;-60
2022/07/28 12:10:41;;;;;;;4.13;1.00;;;24.60;68.00;;;;;;4990312;28;20025;-60
2022/07/28 12:13:07;;;;;;;3.08;0.63;;;24.40;66.30;;;;;;5009003;28;20165;-59
2022/07/28 12:15:36;;;;;;;7.28;0.90;;;24.30;66.50;;;;;;5014171;28;20030;-59
2022/07/28 12:18:02;;;;;;;2.88;0.70;;;24.10;69.50;;;;;;5014755;28;20162;-59
2022/07/28 12:20:31;;;;;;;2.35;0.90;;;24.20;70.60;;;;;;5012804;28;20053;-59
2022/07/28 12:23:04;;;;;;;6.75;1.00;;;24.30;71.10;;;;;;5018654;28;20052;-58
2022/07/28 12:25:40;;;;;;;6.93;1.20;;;24.30;72.00;;;;;;5019963;28;20062;-60
2022/07/28 12:28:16;;;;;;;4.63;0.98;;;24.50;72.60;;;;;;5007353;28;20037;-59
2022/07/28 12:30:42;;;;;;;3.67;1.05;;;24.70;71.70;;;;;;5013115;28;20030;-59
2022/07/28 12:33:18;;;;;;;14.98;1.25;;;24.50;72.10;;;;;;5007050;28;20044;-58
2022/07/28 12:35:46;;;;;;;6.97;1.20;;;24.30;69.50;;;;;;5012171;28;20069;-58
2022/07/28 12:38:12;;;;;;;3.45;0.90;;;24.30;71.60;;;;;;5012074;28;20061;-59
2022/07/28 12:40:38;;;;;;;2.65;0.80;;;24.20;71.60;;;;;;5012579;28;20040;-59
2022/07/28 12:43:04;;;;;;;3.60;0.93;;;24.10;70.50;;;;;;5008959;28;20085;-59
2022/07/28 12:45:32;;;;;;;6.82;1.45;;;24.40;71.60;;;;;;5010909;28;20083;-59
2022/07/28 12:48:07;;;;;;;2.47;0.68;;;24.70;70.90;;;;;;4991881;28;20082;-59
2022/07/28 12:50:37;;;;;;;7.50;1.25;;;25.00;71.10;;;;;;4988018;28;20042;-59
2022/07/28 12:53:08;;;;;;;2.60;0.80;;;25.20;68.80;;;;;;4995391;28;20030;-59
2022/07/28 12:55:34;;;;;;;4.53;0.95;;;25.10;68.50;;;;;;4988320;28;20081;-59
2022/07/28 12:58:00;;;;;;;4.85;1.00;;;25.00;68.00;;;;;;4985118;28;20042;-59
2022/07/28 13:00:30;;;;;;;7.43;0.70;;;25.20;68.40;;;;;;4989525;28;20030;-59